Terminal Aerodrome Forecast
Issued by NWS

Home | Current Version | Previous Version | Text Only | Print | Product List | Glossary On
Versions: 1 2 3 4 5 6 7 8 9 10 11 12
593
FTUS46 KMTR 210548
TAFOAK
TAF
KOAK 210548Z 2106/2212 19028G37KT P6SM -SHRA BKN025 BKN050
      WS020/21050KT
     FM211200 20020G30KT P6SM -SHRA BKN030 BKN060
     FM211500 21012G18KT P6SM -SHRA BKN050
     FM212000 23018G25KT P6SM -SHRA BKN040
     FM220200 26014KT P6SM BKN080=

USA.gov is the U.S. government's official web portal to all federal, state and local government web resources and services.